Time;durP1;ratioP1;P1;durP2;ratioP2;P2;SDS_P1;SDS_P2;PMS_P1;PMS_P2;Temp;Humidity;BMP_temperature;BMP_pressure;BME280_temperature;BME280_humidity;BME280_pressure;Samples;Min_cycle;Max_cycle;Signal;HPM_P1;HPM_P2
2021/12/31 00:02:10;;;;;;;20.60;4.05;;;11.70;99.90;;;;;;5058664;28;20472;-91
2021/12/31 00:04:35;;;;;;;25.92;4.78;;;11.30;99.90;;;;;;5059226;28;20044;-90
2021/12/31 00:07:01;;;;;;;33.63;5.50;;;11.60;99.90;;;;;;5059027;28;20488;-90
2021/12/31 00:09:27;;;;;;;31.67;4.78;;;;;;;;;;5075628;28;20036;-89
2021/12/31 00:11:53;;;;;;;27.10;5.13;;;11.10;99.90;;;;;;5075341;28;20098;-92
2021/12/31 00:14:20;;;;;;;41.88;4.88;;;11.50;99.90;;;;;;5058531;28;20064;-90
2021/12/31 00:16:47;;;;;;;40.00;6.45;;;11.40;99.90;;;;;;5058586;28;20090;-91
2021/12/31 00:19:14;;;;;;;21.23;4.30;;;11.00;99.90;;;;;;5058602;28;20074;-89
2021/12/31 00:21:42;;;;;;;35.22;5.00;;;11.30;99.90;;;;;;5075134;28;20040;-91
2021/12/31 00:24:07;;;;;;;29.58;4.78;;;11.30;99.90;;;;;;5058558;28;20043;-90
2021/12/31 00:26:34;;;;;;;41.38;5.75;;;11.60;99.90;;;;;;5058605;28;20044;-90
2021/12/31 00:29:00;;;;;;;34.65;6.28;;;11.10;99.90;;;;;;5075120;28;20044;-90
2021/12/31 00:31:26;;;;;;;33.20;5.65;;;11.30;99.90;;;;;;5074868;28;20060;-90
2021/12/31 00:33:53;;;;;;;34.53;6.30;;;12.40;99.90;;;;;;5058550;28;20051;-91
2021/12/31 00:36:18;;;;;;;28.80;4.85;;;13.00;99.90;;;;;;5058307;28;20036;-91
2021/12/31 00:38:44;;;;;;;39.10;6.20;;;11.50;99.90;;;;;;5057348;28;20085;-91
2021/12/31 00:41:10;;;;;;;37.83;5.80;;;11.70;99.90;;;;;;5057565;28;20032;-90
2021/12/31 00:43:36;;;;;;;26.77;4.57;;;13.40;99.90;;;;;;5075183;28;20044;-90
2021/12/31 00:46:02;;;;;;;34.60;5.43;;;12.60;99.90;;;;;;5058286;28;20063;-90
2021/12/31 00:48:29;;;;;;;41.13;6.07;;;12.20;99.90;;;;;;5058350;28;20051;-90
2021/12/31 00:50:56;;;;;;;27.20;5.05;;;12.00;99.90;;;;;;5057762;28;20044;-91
2021/12/31 00:53:23;;;;;;;35.08;5.53;;;11.30;99.90;;;;;;5058179;28;20040;-90
2021/12/31 00:55:49;;;;;;;29.70;5.13;;;11.40;99.90;;;;;;5092207;28;20057;-90
2021/12/31 00:58:14;;;;;;;43.72;6.25;;;11.50;99.90;;;;;;5077881;28;20036;-90
2021/12/31 01:00:40;;;;;;;37.42;5.13;;;11.30;99.90;;;;;;5061992;28;20388;-89
2021/12/31 01:03:06;;;;;;;31.92;5.20;;;11.10;99.90;;;;;;5061963;28;20381;-91
2021/12/31 01:05:32;;;;;;;34.50;5.65;;;12.50;99.90;;;;;;5078643;28;20044;-91
2021/12/31 01:07:58;;;;;;;38.20;5.30;;;;;;;;;;5062199;28;20040;-90
2021/12/31 01:10:27;;;;;;;40.47;5.93;;;11.40;99.90;;;;;;5078514;28;20055;-91
2021/12/31 01:12:53;;;;;;;31.98;5.03;;;11.40;99.90;;;;;;5061294;28;20114;-92
2021/12/31 01:15:33;;;;;;;29.67;5.05;;;11.40;99.90;;;;;;5061700;28;20502;-90
2021/12/31 01:20:25;;;;;;;28.83;3.97;;;11.80;99.90;;;;;;5078503;28;20385;-91
2021/12/31 01:22:50;;;;;;;40.92;5.82;;;11.50;99.90;;;;;;5061803;28;20131;-90
2021/12/31 01:25:16;;;;;;;36.08;6.13;;;11.70;99.90;;;;;;5061450;28;20129;-91
2021/12/31 01:27:42;;;;;;;34.90;5.63;;;11.80;99.90;;;;;;5061603;28;20391;-90
2021/12/31 01:30:13;;;;;;;32.40;5.72;;;11.80;99.90;;;;;;5061490;28;20131;-91
2021/12/31 01:32:41;;;;;;;29.45;5.35;;;11.90;99.90;;;;;;5077821;28;20056;-91
2021/12/31 01:35:07;;;;;;;23.60;4.10;;;11.90;99.90;;;;;;5061158;28;20048;-91
2021/12/31 01:37:33;;;;;;;27.90;4.93;;;11.90;99.90;;;;;;5061257;28;20037;-90
2021/12/31 01:39:59;;;;;;;21.85;4.47;;;11.80;99.90;;;;;;5078046;28;20094;-90
2021/12/31 01:42:33;;;;;;;23.38;4.28;;;11.80;99.90;;;;;;5061414;28;20040;-91
2021/12/31 01:45:17;;;;;;;23.38;4.15;;;11.50;99.90;;;;;;5061756;28;20040;-91
2021/12/31 01:47:56;;;;;;;37.38;4.97;;;11.90;99.90;;;;;;5061202;28;20051;-90
2021/12/31 01:50:27;;;;;;;27.73;4.55;;;11.90;99.90;;;;;;5060139;28;20039;-90
2021/12/31 01:52:54;;;;;;;17.40;3.90;;;9.60;99.90;;;;;;5060042;28;20090;-90
2021/12/31 01:55:22;;;;;;;22.98;4.53;;;11.50;99.90;;;;;;5060319;28;20039;-90
2021/12/31 01:57:49;;;;;;;17.92;4.07;;;11.50;99.90;;;;;;5060738;28;20059;-90
2021/12/31 02:00:15;;;;;;;28.42;5.95;;;11.70;99.90;;;;;;5060154;28;20077;-90
2021/12/31 02:02:44;;;;;;;24.77;5.00;;;11.50;99.90;;;;;;5076713;28;20051;-90
2021/12/31 02:05:10;;;;;;;29.58;5.05;;;11.80;99.90;;;;;;5060761;28;20396;-90
2021/12/31 02:07:37;;;;;;;13.55;3.53;;;11.40;99.90;;;;;;5060392;28;20105;-89
2021/12/31 02:10:03;;;;;;;26.50;4.35;;;10.30;99.90;;;;;;5059544;28;20036;-90
2021/12/31 02:12:29;;;;;;;27.77;5.10;;;11.80;99.90;;;;;;5059736;28;20484;-90
2021/12/31 02:14:55;;;;;;;21.50;4.47;;;12.00;99.90;;;;;;5059930;28;20048;-91
2021/12/31 02:17:20;;;;;;;29.23;5.35;;;12.00;99.90;;;;;;5059871;28;20113;-89
2021/12/31 02:20:04;;;;;;;25.50;5.00;;;12.10;99.90;;;;;;5079475;28;20123;-90
2021/12/31 02:22:30;;;;;;;28.08;4.18;;;12.20;99.90;;;;;;5076289;28;20078;-89
2021/12/31 02:24:57;;;;;;;30.23;5.28;;;12.50;99.90;;;;;;5064753;28;20044;-90
2021/12/31 02:27:23;;;;;;;21.20;4.38;;;12.00;99.90;;;;;;5093726;28;20040;-90
2021/12/31 02:29:50;;;;;;;23.02;5.32;;;11.70;99.90;;;;;;5060153;28;20119;-91
2021/12/31 02:32:16;;;;;;;24.00;4.38;;;11.90;99.90;;;;;;5059610;28;20516;-92
2021/12/31 02:34:42;;;;;;;26.90;5.20;;;12.10;99.90;;;;;;5060331;28;20059;-91
2021/12/31 02:37:07;;;;;;;21.98;4.43;;;11.80;99.90;;;;;;5060023;28;20036;-91
2021/12/31 02:39:37;;;;;;;23.23;3.92;;;11.60;99.90;;;;;;5076425;28;20071;-91
2021/12/31 02:42:04;;;;;;;16.73;4.30;;;12.70;99.90;;;;;;5076547;28;20090;-91
2021/12/31 02:44:29;;;;;;;26.05;4.55;;;11.60;99.90;;;;;;5060138;28;20043;-90
2021/12/31 02:46:55;;;;;;;20.23;4.25;;;12.90;99.90;;;;;;5060033;28;20052;-90
2021/12/31 02:49:24;;;;;;;18.52;3.30;;;13.40;99.90;;;;;;5071087;28;20040;-90
2021/12/31 02:51:50;;;;;;;24.80;4.80;;;11.70;99.90;;;;;;5076480;28;20381;-89
2021/12/31 02:54:17;;;;;;;33.13;4.50;;;11.90;99.90;;;;;;5082372;28;20039;-89
2021/12/31 02:56:44;;;;;;;23.90;4.80;;;11.80;99.90;;;;;;5059845;28;20055;-90
2021/12/31 02:59:10;;;;;;;20.38;4.32;;;11.40;99.90;;;;;;5063528;28;20437;-91
2021/12/31 03:01:36;;;;;;;27.67;4.88;;;12.90;99.90;;;;;;5059525;28;20078;-89
2021/12/31 03:04:03;;;;;;;18.42;4.47;;;11.60;99.90;;;;;;5076400;28;20071;-90
2021/12/31 03:06:30;;;;;;;23.30;4.22;;;11.60;99.90;;;;;;5076053;28;20051;-90
2021/12/31 03:08:58;;;;;;;31.40;5.03;;;12.60;99.90;;;;;;5059384;28;20044;-89
2021/12/31 03:11:24;;;;;;;17.88;3.95;;;12.80;99.90;;;;;;5059356;28;20046;-90
2021/12/31 03:13:52;;;;;;;30.08;6.40;;;9.70;99.90;;;;;;5059469;28;20043;-90
2021/12/31 03:16:22;;;;;;;15.73;3.50;;;11.50;99.90;;;;;;5075843;28;20075;-90
2021/12/31 03:18:49;;;;;;;32.53;4.82;;;11.50;99.90;;;;;;5059345;28;20070;-91
2021/12/31 03:21:21;;;;;;;25.10;4.60;;;;;;;;;;5059338;28;20040;-89
2021/12/31 03:23:49;;;;;;;19.13;3.88;;;11.30;99.90;;;;;;5075780;28;20040;-89
2021/12/31 03:26:15;;;;;;;21.75;4.38;;;13.10;99.90;;;;;;5059574;28;20101;-90
2021/12/31 03:28:41;;;;;;;13.45;3.75;;;11.40;99.90;;;;;;5059424;28;20048;-91
2021/12/31 03:31:10;;;;;;;19.50;4.70;;;10.20;99.90;;;;;;5058357;28;20156;-92
2021/12/31 03:33:36;;;;;;;15.75;3.67;;;12.10;99.90;;;;;;5056116;28;20064;-90
2021/12/31 03:36:02;;;;;;;19.80;4.25;;;13.00;99.90;;;;;;5038968;28;20041;-90
2021/12/31 03:38:28;;;;;;;18.63;3.97;;;11.50;99.90;;;;;;5039519;28;20098;-90
2021/12/31 03:40:53;;;;;;;14.77;3.63;;;13.50;99.90;;;;;;5038049;28;20041;-89
2021/12/31 03:43:19;;;;;;;14.93;4.00;;;11.60;99.90;;;;;;5019297;28;20052;-90
2021/12/31 03:45:46;;;;;;;23.70;4.53;;;12.60;99.90;;;;;;5019779;28;20063;-90
2021/12/31 03:48:12;;;;;;;21.77;4.75;;;12.80;99.90;;;;;;5034530;28;20079;-90
2021/12/31 03:50:38;;;;;;;21.27;4.32;;;11.90;99.90;;;;;;5038729;28;20107;-91
2021/12/31 03:53:04;;;;;;;24.95;3.90;;;11.90;99.90;;;;;;5039535;28;20049;-91
2021/12/31 03:55:30;;;;;;;19.50;3.42;;;12.30;99.90;;;;;;5043308;28;20040;-90
2021/12/31 03:57:56;;;;;;;20.30;4.32;;;12.50;99.90;;;;;;5039170;28;20048;-90
2021/12/31 04:00:21;;;;;;;24.25;5.00;;;12.30;99.90;;;;;;5038611;28;20045;-90
2021/12/31 04:02:47;;;;;;;20.67;4.75;;;12.90;99.90;;;;;;5038236;28;20041;-91
2021/12/31 04:05:13;;;;;;;17.08;4.47;;;12.90;99.90;;;;;;5038744;28;20078;-90
2021/12/31 04:07:39;;;;;;;22.88;4.40;;;13.00;99.90;;;;;;5038377;28;20033;-90
2021/12/31 04:10:05;;;;;;;15.60;3.85;;;12.80;99.90;;;;;;5038577;28;20053;-90
2021/12/31 04:12:31;;;;;;;17.65;3.45;;;11.70;99.90;;;;;;5038445;28;20041;-90
2021/12/31 04:14:57;;;;;;;22.75;4.28;;;12.60;99.90;;;;;;5038988;28;20468;-91
2021/12/31 04:17:22;;;;;;;25.23;5.13;;;13.70;99.90;;;;;;5038547;28;20123;-91
2021/12/31 04:19:52;;;;;;;22.98;4.18;;;11.90;99.90;;;;;;5038873;28;20075;-89
2021/12/31 04:22:20;;;;;;;17.95;4.35;;;13.30;99.90;;;;;;5055032;28;20044;-90
2021/12/31 04:27:12;;;;;;;13.65;3.13;;;11.80;99.90;;;;;;5075133;28;20419;-90
2021/12/31 04:29:38;;;;;;;23.50;3.63;;;13.70;99.90;;;;;;5058897;28;20036;-90
2021/12/31 04:32:05;;;;;;;16.27;3.85;;;11.60;99.90;;;;;;5072869;28;20109;-90
2021/12/31 04:34:32;;;;;;;18.70;4.03;;;11.80;99.90;;;;;;5062217;28;20101;-89
2021/12/31 04:36:58;;;;;;;31.25;4.63;;;11.90;99.90;;;;;;5062112;28;20039;-92
2021/12/31 04:39:24;;;;;;;28.38;4.13;;;11.80;99.90;;;;;;5079505;28;20112;-90
2021/12/31 04:41:50;;;;;;;16.35;3.90;;;12.00;99.90;;;;;;5062557;28;20547;-91
2021/12/31 04:44:16;;;;;;;13.40;3.85;;;12.10;99.90;;;;;;5079145;28;20036;-90
2021/12/31 04:46:42;;;;;;;15.38;3.88;;;11.80;99.90;;;;;;5078720;28;20124;-90
2021/12/31 04:49:07;;;;;;;18.10;3.38;;;12.20;99.90;;;;;;5062295;28;20377;-90
2021/12/31 04:51:34;;;;;;;21.70;3.45;;;13.20;99.90;;;;;;5078671;28;20067;-90
2021/12/31 04:54:00;;;;;;;12.77;3.15;;;13.70;99.90;;;;;;5078927;28;20047;-90
2021/12/31 04:56:26;;;;;;;13.85;3.30;;;12.40;99.90;;;;;;5078465;28;20044;-90
2021/12/31 04:58:51;;;;;;;16.90;3.50;;;13.10;99.90;;;;;;5061889;28;20044;-89
2021/12/31 05:01:21;;;;;;;17.58;3.33;;;12.60;99.90;;;;;;5060428;28;20048;-90
2021/12/31 05:03:48;;;;;;;15.50;3.28;;;12.50;99.90;;;;;;5061186;28;20518;-89
2021/12/31 05:06:14;;;;;;;10.18;3.03;;;11.60;99.90;;;;;;5061463;28;20055;-90
2021/12/31 05:08:40;;;;;;;10.55;2.75;;;12.70;99.90;;;;;;5077236;28;20044;-90
2021/12/31 05:11:05;;;;;;;12.73;3.50;;;11.50;99.90;;;;;;5060945;28;20044;-90
2021/12/31 05:13:31;;;;;;;12.95;2.88;;;12.10;99.90;;;;;;5061727;28;20054;-89
2021/12/31 05:16:02;;;;;;;11.07;2.55;;;11.80;99.90;;;;;;5061446;28;20510;-90
2021/12/31 05:18:27;;;;;;;18.23;3.50;;;12.20;99.90;;;;;;5062100;28;20036;-91
2021/12/31 05:20:53;;;;;;;18.90;3.33;;;11.60;99.90;;;;;;5078178;28;20498;-91
2021/12/31 05:23:20;;;;;;;14.20;3.08;;;12.20;99.90;;;;;;5078007;28;20047;-89
2021/12/31 05:25:45;;;;;;;16.80;3.83;;;11.90;99.90;;;;;;5060827;28;20055;-89
2021/12/31 05:28:11;;;;;;;15.88;3.60;;;11.60;99.90;;;;;;5077618;28;20036;-90
2021/12/31 05:30:37;;;;;;;12.10;2.90;;;11.70;99.90;;;;;;5060624;28;20380;-89
2021/12/31 05:33:04;;;;;;;12.07;2.78;;;13.40;99.90;;;;;;5060735;28;20052;-90
2021/12/31 05:35:29;;;;;;;11.27;2.92;;;11.70;99.90;;;;;;5077614;28;20044;-90
2021/12/31 05:37:56;;;;;;;16.00;3.15;;;12.70;99.90;;;;;;5077494;28;20740;-89
2021/12/31 05:40:23;;;;;;;10.25;2.92;;;12.00;99.90;;;;;;5061141;28;20385;-90
2021/12/31 05:42:48;;;;;;;11.23;2.80;;;11.80;99.90;;;;;;5060482;28;20036;-90
2021/12/31 05:45:14;;;;;;;20.10;3.78;;;11.90;99.90;;;;;;5076653;28;20437;-90
2021/12/31 05:47:40;;;;;;;9.93;2.90;;;12.00;99.90;;;;;;5061417;28;20048;-90
2021/12/31 05:50:08;;;;;;;17.05;3.30;;;11.90;99.90;;;;;;5077554;28;20040;-90
2021/12/31 05:52:34;;;;;;;14.48;3.40;;;11.60;99.90;;;;;;5060621;28;20101;-91
2021/12/31 05:54:59;;;;;;;17.67;3.47;;;11.70;99.90;;;;;;5050539;28;20044;-90
2021/12/31 05:57:25;;;;;;;14.57;3.47;;;13.00;99.90;;;;;;5041314;28;20039;-90
2021/12/31 05:59:51;;;;;;;13.43;3.05;;;12.20;99.90;;;;;;5040997;28;20080;-90
2021/12/31 06:02:17;;;;;;;8.85;2.80;;;12.90;99.90;;;;;;5074415;28;20119;-89
2021/12/31 06:04:42;;;;;;;11.05;2.90;;;12.80;99.90;;;;;;5044026;28;20127;-89
2021/12/31 06:07:08;;;;;;;23.70;3.88;;;11.70;99.90;;;;;;5075085;28;20048;-90
2021/12/31 06:09:34;;;;;;;13.25;3.55;;;12.40;99.90;;;;;;5075204;28;20044;-91
2021/12/31 06:12:00;;;;;;;15.50;3.67;;;11.20;99.90;;;;;;5057014;28;20511;-90
2021/12/31 06:14:26;;;;;;;20.27;3.63;;;12.30;99.90;;;;;;5057453;28;20045;-90
2021/12/31 06:16:52;;;;;;;11.48;2.95;;;12.70;99.90;;;;;;5066035;28;20047;-90
2021/12/31 06:19:18;;;;;;;21.80;3.33;;;11.40;99.90;;;;;;5059909;28;20408;-90
2021/12/31 06:21:46;;;;;;;11.50;2.88;;;12.00;99.90;;;;;;5076574;28;20410;-90
2021/12/31 06:24:12;;;;;;;13.68;3.10;;;13.30;99.90;;;;;;5076855;28;20044;-89
2021/12/31 06:26:38;;;;;;;10.02;3.05;;;11.30;99.90;;;;;;5062303;28;20040;-90
2021/12/31 06:29:04;;;;;;;23.02;3.47;;;11.40;99.90;;;;;;5057644;28;20067;-90
2021/12/31 06:31:30;;;;;;;15.85;4.38;;;11.20;99.90;;;;;;5076374;28;20082;-90
2021/12/31 06:33:56;;;;;;;14.27;3.33;;;11.10;99.90;;;;;;5076441;28;20044;-89
2021/12/31 06:36:22;;;;;;;11.20;2.95;;;12.50;99.90;;;;;;5076138;28;20385;-89
2021/12/31 06:38:50;;;;;;;12.77;3.10;;;11.60;99.90;;;;;;5059794;28;20051;-89
2021/12/31 06:41:16;;;;;;;21.60;3.03;;;11.30;99.90;;;;;;5059825;28;20170;-90
2021/12/31 06:43:43;;;;;;;10.65;3.42;;;11.20;99.90;;;;;;5059919;28;20071;-90
2021/12/31 06:46:09;;;;;;;8.88;2.58;;;11.40;99.90;;;;;;5059623;28;20075;-90
2021/12/31 06:48:34;;;;;;;13.20;3.47;;;12.50;99.90;;;;;;5071729;28;20129;-90
2021/12/31 06:51:00;;;;;;;19.73;3.38;;;11.20;99.90;;;;;;5065927;28;20048;-89
2021/12/31 06:53:26;;;;;;;15.05;3.88;;;11.30;99.90;;;;;;5076001;28;20048;-89
2021/12/31 06:55:52;;;;;;;26.42;4.13;;;12.50;99.90;;;;;;5059252;28;20093;-90
2021/12/31 06:58:18;;;;;;;17.52;3.40;;;11.10;99.90;;;;;;5059772;28;20048;-90
2021/12/31 07:00:43;;;;;;;12.30;3.15;;;12.00;99.90;;;;;;5076164;28;20130;-90
2021/12/31 07:03:11;;;;;;;12.70;3.63;;;11.10;99.90;;;;;;5075990;28;20561;-89
2021/12/31 07:05:39;;;;;;;10.90;3.03;;;11.60;99.90;;;;;;5056245;28;20499;-90
2021/12/31 07:08:05;;;;;;;15.68;3.78;;;11.30;99.90;;;;;;5055864;28;20052;-90
2021/12/31 07:10:31;;;;;;;11.27;3.63;;;11.00;99.90;;;;;;5039371;28;20040;-90
2021/12/31 07:12:59;;;;;;;18.25;3.47;;;11.00;99.90;;;;;;5044422;28;20051;-90
2021/12/31 07:15:25;;;;;;;16.08;3.17;;;11.20;99.90;;;;;;5090157;28;20040;-89
2021/12/31 07:17:52;;;;;;;14.85;3.53;;;10.90;99.90;;;;;;5073188;28;20059;-87
2021/12/31 07:20:18;;;;;;;23.60;3.38;;;11.60;99.90;;;;;;5073531;28;20040;-88
2021/12/31 07:22:44;;;;;;;11.13;2.97;;;11.00;99.90;;;;;;5056032;28;20044;-88
2021/12/31 07:25:10;;;;;;;13.30;3.20;;;12.80;99.90;;;;;;5083606;28;20040;-87
2021/12/31 07:27:35;;;;;;;12.50;3.35;;;10.90;99.90;;;;;;5087542;28;20097;-88
2021/12/31 07:30:01;;;;;;;15.85;3.50;;;10.90;99.90;;;;;;5054078;28;20037;-90
2021/12/31 07:32:27;;;;;;;12.45;3.83;;;10.90;99.90;;;;;;5053016;28;20403;-90
2021/12/31 07:34:53;;;;;;;17.35;3.65;;;11.50;99.90;;;;;;5069007;28;20059;-92
2021/12/31 07:37:18;;;;;;;10.43;2.92;;;12.20;99.90;;;;;;5056660;28;20059;-89
2021/12/31 07:39:48;;;;;;;15.55;3.28;;;10.70;99.90;;;;;;5055277;28;20036;-88
2021/12/31 07:42:13;;;;;;;12.82;2.95;;;12.90;99.90;;;;;;5053461;28;20123;-91
2021/12/31 07:44:39;;;;;;;18.85;3.80;;;11.20;99.90;;;;;;5054518;28;20185;-88
2021/12/31 07:47:05;;;;;;;12.93;3.20;;;12.00;99.90;;;;;;5073033;28;20051;-88
2021/12/31 07:49:31;;;;;;;19.25;3.50;;;10.90;99.90;;;;;;5058358;28;20060;-88
2021/12/31 07:51:57;;;;;;;22.15;3.60;;;11.00;99.90;;;;;;5091897;28;20043;-88
2021/12/31 07:54:22;;;;;;;14.73;3.40;;;11.10;99.90;;;;;;5056828;28;20118;-88
2021/12/31 07:56:48;;;;;;;14.40;3.50;;;11.40;99.90;;;;;;5073353;28;20420;-88
2021/12/31 07:59:14;;;;;;;12.02;3.10;;;12.90;99.90;;;;;;5058359;28;20042;-88
2021/12/31 08:01:39;;;;;;;18.10;3.97;;;11.20;99.90;;;;;;5075090;28;20094;-91
2021/12/31 08:04:05;;;;;;;16.42;3.53;;;12.70;99.90;;;;;;5058958;28;20045;-87
2021/12/31 08:06:31;;;;;;;17.98;3.30;;;11.20;99.90;;;;;;5093288;28;20404;-95
2021/12/31 08:08:57;;;;;;;13.23;3.20;;;11.40;99.90;;;;;;5063106;28;20040;-92
2021/12/31 08:11:22;;;;;;;12.05;3.53;;;11.40;99.90;;;;;;5079346;28;20032;-89
2021/12/31 08:13:48;;;;;;;17.98;3.90;;;11.70;99.90;;;;;;5056008;28;20480;-89
2021/12/31 08:16:14;;;;;;;20.38;4.07;;;11.60;99.90;;;;;;5061681;28;20075;-89
2021/12/31 08:18:40;;;;;;;21.60;4.65;;;11.30;99.90;;;;;;5078906;28;20158;-87
2021/12/31 08:21:06;;;;;;;16.45;4.32;;;11.90;99.90;;;;;;5070435;28;20047;-90
2021/12/31 08:23:32;;;;;;;23.08;3.80;;;11.30;99.90;;;;;;5059403;28;20066;-91
2021/12/31 08:26:01;;;;;;;20.48;3.53;;;11.10;99.90;;;;;;5073322;28;20040;-91
2021/12/31 08:28:27;;;;;;;20.45;4.00;;;10.90;99.90;;;;;;5062728;28;20123;-92
2021/12/31 08:30:53;;;;;;;19.65;4.45;;;11.70;99.90;;;;;;5061500;28;20148;-91
2021/12/31 08:33:18;;;;;;;21.30;3.83;;;10.90;99.90;;;;;;5059731;28;20062;-90
2021/12/31 08:35:44;;;;;;;24.95;4.40;;;10.90;99.90;;;;;;5056714;28;20081;-88
2021/12/31 08:38:10;;;;;;;24.65;4.43;;;10.70;99.90;;;;;;5072177;28;20380;-86
2021/12/31 08:40:36;;;;;;;18.77;4.68;;;11.10;99.90;;;;;;5074473;28;20041;-89
2021/12/31 08:43:02;;;;;;;26.60;4.10;;;10.90;99.90;;;;;;5072967;28;20035;-87
2021/12/31 08:45:29;;;;;;;15.10;3.55;;;10.80;99.90;;;;;;5060501;28;20076;-87
2021/12/31 08:47:57;;;;;;;31.67;5.10;;;10.90;99.90;;;;;;5071996;28;20534;-89
2021/12/31 08:50:23;;;;;;;17.88;3.80;;;11.10;99.90;;;;;;5060981;28;20437;-93
2021/12/31 08:52:49;;;;;;;21.83;5.07;;;10.90;99.90;;;;;;5060783;28;20112;-87
2021/12/31 08:55:17;;;;;;;23.75;4.05;;;11.10;99.90;;;;;;5074858;28;20047;-84
2021/12/31 08:58:03;;;;;;;26.35;4.97;;;9.50;99.90;;;;;;5056092;28;20389;-90
2021/12/31 09:00:32;;;;;;;13.30;3.65;;;11.10;99.90;;;;;;5048605;28;20174;-86
2021/12/31 09:02:58;;;;;;;27.45;4.25;;;11.90;99.90;;;;;;5073275;28;20040;-88
2021/12/31 09:05:24;;;;;;;16.40;4.32;;;13.30;99.90;;;;;;5074241;28;21770;-91
2021/12/31 09:07:50;;;;;;;30.75;4.63;;;11.50;99.90;;;;;;5060237;28;20036;-87
2021/12/31 09:10:17;;;;;;;30.23;5.18;;;11.20;99.90;;;;;;5079850;28;20048;-90
2021/12/31 09:12:47;;;;;;;17.30;4.22;;;11.10;99.90;;;;;;5060706;28;20028;-89
2021/12/31 09:15:13;;;;;;;26.17;4.75;;;13.50;99.90;;;;;;5076219;28;20053;-87
2021/12/31 09:17:43;;;;;;;19.88;3.97;;;12.20;99.90;;;;;;5060183;28;20051;-89
2021/12/31 09:20:10;;;;;;;22.63;3.88;;;12.10;99.90;;;;;;5076407;28;20117;-91
2021/12/31 09:22:35;;;;;;;22.45;4.13;;;10.90;99.90;;;;;;5059137;28;20064;-87
2021/12/31 09:25:01;;;;;;;22.30;4.88;;;10.80;99.90;;;;;;5074101;28;20125;-87
2021/12/31 09:27:28;;;;;;;23.55;4.80;;;11.00;99.90;;;;;;5075231;28;20069;-84
2021/12/31 09:29:54;;;;;;;20.70;4.22;;;11.50;99.90;;;;;;5075279;28;20059;-89
2021/12/31 09:32:20;;;;;;;27.00;4.45;;;11.40;99.90;;;;;;5060499;28;20488;-89
2021/12/31 09:34:48;;;;;;;24.55;5.00;;;11.40;99.90;;;;;;5060269;28;20052;-86
2021/12/31 09:37:14;;;;;;;21.35;4.65;;;11.50;99.90;;;;;;5074874;28;20076;-88
2021/12/31 09:39:40;;;;;;;26.17;4.10;;;12.50;99.90;;;;;;5054875;28;20048;-87
2021/12/31 09:42:07;;;;;;;26.42;4.10;;;11.40;99.90;;;;;;5074714;28;20040;-87
2021/12/31 09:44:33;;;;;;;24.45;5.18;;;12.70;99.90;;;;;;5076247;28;20044;-89
2021/12/31 09:46:59;;;;;;;22.35;4.15;;;11.30;99.90;;;;;;5074917;28;20033;-89
2021/12/31 09:49:25;;;;;;;19.55;3.67;;;11.50;99.90;;;;;;5077066;28;20044;-86
2021/12/31 09:51:51;;;;;;;26.83;4.50;;;11.30;99.90;;;;;;5059885;28;20082;-85
2021/12/31 09:54:21;;;;;;;29.55;4.85;;;11.30;99.90;;;;;;5091979;28;20040;-89
2021/12/31 09:56:48;;;;;;;19.85;4.10;;;11.40;99.90;;;;;;5092807;28;20048;-90
2021/12/31 09:59:14;;;;;;;29.02;4.85;;;11.80;99.90;;;;;;5059622;28;20047;-87
2021/12/31 10:01:49;;;;;;;35.03;5.13;;;11.00;99.90;;;;;;5076577;28;20092;-86
2021/12/31 10:04:15;;;;;;;33.03;5.82;;;11.30;99.90;;;;;;5086595;28;20059;-92
2021/12/31 10:07:06;;;;;;;26.35;4.65;;;11.50;99.90;;;;;;5051476;28;20040;-89
2021/12/31 10:09:35;;;;;;;24.88;4.43;;;11.40;99.90;;;;;;5054721;28;20055;-88
2021/12/31 10:12:03;;;;;;;36.38;4.25;;;11.30;99.90;;;;;;5058135;28;20093;-86
2021/12/31 10:14:34;;;;;;;26.63;4.25;;;11.50;99.90;;;;;;5057519;28;20040;-95
2021/12/31 10:16:59;;;;;;;14.98;3.72;;;11.40;99.90;;;;;;5059500;28;20032;-88
2021/12/31 10:19:27;;;;;;;20.33;4.80;;;13.50;99.90;;;;;;5075937;28;20055;-86
2021/12/31 10:21:56;;;;;;;21.63;4.38;;;11.50;99.90;;;;;;5072975;28;20135;-87
2021/12/31 10:24:23;;;;;;;20.45;4.35;;;11.70;99.90;;;;;;5072656;28;20150;-87
2021/12/31 10:26:56;;;;;;;22.73;3.70;;;11.50;99.90;;;;;;5059708;28;20119;-91
2021/12/31 10:29:22;;;;;;;19.67;4.22;;;12.80;99.90;;;;;;5058426;28;20399;-90
2021/12/31 10:31:51;;;;;;;27.42;5.40;;;11.30;99.90;;;;;;5042918;28;20097;-88
2021/12/31 10:34:26;;;;;;;23.75;5.40;;;12.70;99.90;;;;;;5060373;28;20134;-92
2021/12/31 10:36:52;;;;;;;31.70;5.90;;;11.40;99.90;;;;;;5076362;28;20389;-91
2021/12/31 10:39:23;;;;;;;26.75;4.70;;;11.90;99.90;;;;;;5059924;28;20040;-91
2021/12/31 10:41:51;;;;;;;27.08;5.32;;;12.50;99.90;;;;;;5056463;28;20047;-90
2021/12/31 10:44:17;;;;;;;31.65;4.80;;;11.50;99.90;;;;;;5077068;28;20052;-91
2021/12/31 10:46:43;;;;;;;25.30;4.03;;;11.70;99.90;;;;;;5059402;28;20051;-89
2021/12/31 10:49:11;;;;;;;27.70;4.85;;;11.20;99.90;;;;;;5059418;28;20032;-90
2021/12/31 10:51:44;;;;;;;49.97;6.20;;;11.50;99.90;;;;;;5059662;28;20399;-88
2021/12/31 10:54:28;;;;;;;39.28;5.80;;;11.00;99.90;;;;;;5076532;28;20492;-89
2021/12/31 10:56:55;;;;;;;38.35;6.10;;;11.40;99.90;;;;;;5059843;28;20043;-90
2021/12/31 10:59:21;;;;;;;27.95;4.88;;;12.40;99.90;;;;;;5059885;28;20044;-89
2021/12/31 11:01:48;;;;;;;36.63;5.55;;;11.20;99.90;;;;;;5077165;28;20078;-90
2021/12/31 11:04:20;;;;;;;44.90;6.18;;;11.60;99.90;;;;;;5059890;28;20051;-91
2021/12/31 11:06:47;;;;;;;37.72;5.10;;;11.70;99.90;;;;;;5059625;28;20198;-90
2021/12/31 11:09:14;;;;;;;33.92;4.93;;;10.90;99.90;;;;;;5059526;28;20052;-89
2021/12/31 11:11:43;;;;;;;30.55;5.43;;;11.70;99.90;;;;;;5058829;28;20040;-88
2021/12/31 11:14:11;;;;;;;31.27;5.25;;;11.30;99.90;;;;;;5059307;28;20097;-88
2021/12/31 11:16:40;;;;;;;28.52;4.57;;;10.80;99.90;;;;;;5086647;28;20048;-89
2021/12/31 11:19:08;;;;;;;39.25;5.57;;;11.70;99.90;;;;;;5075867;28;20048;-88
2021/12/31 11:21:35;;;;;;;28.35;5.05;;;11.60;99.90;;;;;;5075785;28;20048;-87
2021/12/31 11:24:33;;;;;;;40.72;6.13;;;12.70;99.90;;;;;;5083712;28;20036;-89
2021/12/31 11:27:00;;;;;;;28.35;5.22;;;12.50;99.90;;;;;;5075731;28;20044;-89
2021/12/31 11:29:36;;;;;;;25.70;4.72;;;11.70;99.90;;;;;;5058447;28;20506;-87
2021/12/31 11:32:02;;;;;;;;;;;13.20;99.90;;;;;;5075626;28;20040;-85
2021/12/31 11:34:30;;;;;;;35.60;5.25;;;12.60;99.90;;;;;;5093719;28;20656;-86
2021/12/31 11:36:57;;;;;;;43.63;7.22;;;12.00;99.90;;;;;;5075541;28;20044;-87
2021/12/31 11:39:28;;;;;;;31.55;4.60;;;12.00;99.90;;;;;;5093487;28;20044;-87
2021/12/31 11:41:58;;;;;;;19.50;4.68;;;11.30;99.90;;;;;;5074671;28;20051;-88
2021/12/31 11:44:25;;;;;;;31.65;5.30;;;10.80;99.90;;;;;;5059496;28;20438;-86
2021/12/31 11:46:51;;;;;;;28.02;5.47;;;12.50;99.90;;;;;;5076227;28;20040;-86
2021/12/31 11:49:22;;;;;;;30.55;5.57;;;11.30;99.90;;;;;;5077485;28;20499;-86
2021/12/31 11:52:05;;;;;;;38.13;5.70;;;11.10;99.90;;;;;;5092087;28;20040;-87
2021/12/31 11:54:32;;;;;;;29.00;4.55;;;11.90;99.90;;;;;;5057673;28;20052;-87
2021/12/31 11:57:00;;;;;;;38.05;5.53;;;11.00;99.90;;;;;;5058631;28;20139;-87
2021/12/31 11:59:28;;;;;;;45.47;5.57;;;12.10;99.90;;;;;;5075163;28;20519;-86
2021/12/31 12:02:07;;;;;;;25.90;5.05;;;11.80;99.90;;;;;;5058525;28;20214;-89
2021/12/31 12:04:37;;;;;;;31.95;5.32;;;10.30;99.90;;;;;;5060068;28;20040;-91
2021/12/31 12:07:09;;;;;;;39.00;6.43;;;12.20;99.90;;;;;;5058854;28;20043;-88
2021/12/31 12:09:36;;;;;;;28.13;4.93;;;11.90;99.90;;;;;;5057997;28;20525;-87
2021/12/31 12:12:08;;;;;;;43.60;6.03;;;11.90;99.90;;;;;;5058495;28;20036;-87
2021/12/31 12:14:40;;;;;;;37.80;5.65;;;12.40;99.90;;;;;;5058386;28;20044;-88
2021/12/31 12:17:07;;;;;;;33.60;5.65;;;11.80;99.90;;;;;;5058040;28;20044;-90
2021/12/31 12:19:45;;;;;;;24.17;4.70;;;11.20;99.90;;;;;;5058427;28;20136;-86
2021/12/31 12:22:28;;;;;;;42.22;5.00;;;11.90;99.90;;;;;;5058484;28;20081;-87
2021/12/31 12:28:26;;;;;;;35.42;5.07;;;12.70;99.90;;;;;;5092568;28;20093;-93
2021/12/31 12:31:03;;;;;;;33.85;5.32;;;10.80;99.90;;;;;;5059031;28;20063;-90
2021/12/31 12:33:30;;;;;;;38.03;5.53;;;11.60;99.90;;;;;;5058095;28;20060;-92
2021/12/31 12:36:00;;;;;;;43.60;5.32;;;12.20;99.90;;;;;;5058334;28;20050;-86
2021/12/31 12:38:29;;;;;;;28.60;5.18;;;12.10;99.90;;;;;;5075004;28;20048;-90
2021/12/31 12:41:01;;;;;;;30.23;4.85;;;12.40;99.90;;;;;;5058222;28;20032;-88
2021/12/31 12:43:36;;;;;;;40.97;6.57;;;10.90;99.90;;;;;;5074963;28;20086;-89
2021/12/31 12:46:30;;;;;;;40.88;6.07;;;10.50;99.90;;;;;;5058745;28;20456;-94
2021/12/31 12:48:58;;;;;;;40.45;5.82;;;12.10;99.90;;;;;;5058350;28;20384;-89